Time;durP1;ratioP1;P1;durP2;ratioP2;P2;SDS_P1;SDS_P2;PMS_P1;PMS_P2;Temp;Humidity;BMP_temperature;BMP_pressure;BME280_temperature;BME280_humidity;BME280_pressure;Samples;Min_cycle;Max_cycle;Signal;HPM_P1;HPM_P2
2021/11/07 00:06:19;;;;;;;4.47;2.60;;;;;;;6.95;73.68;98821.34;4968917;28;20102;-76
2021/11/07 00:11:22;;;;;;;3.45;1.80;;;;;;;7.02;71.63;98833.06;4974522;28;20051;-79
2021/11/07 00:13:50;;;;;;;3.07;1.13;;;;;;;7.00;70.10;98840.22;4957847;28;20050;-79
2021/11/07 00:16:22;;;;;;;1.73;0.85;;;;;;;6.80;68.93;98854.88;4955148;29;20054;-81
2021/11/07 00:19:02;;;;;;;2.00;1.00;;;;;;;6.58;69.43;98855.63;4957784;28;20125;-76
2021/11/07 00:21:30;;;;;;;2.17;0.80;;;;;;;6.45;67.78;98851.28;4944714;29;20046;-76
2021/11/07 00:24:03;;;;;;;1.27;0.65;;;;;;;6.52;66.93;98856.94;4971998;28;20053;-75
2021/11/07 00:29:12;;;;;;;2.47;0.50;;;;;;;6.48;66.77;98856.31;4955255;28;20042;-77
2021/11/07 00:37:09;;;;;;;5.03;0.30;;;;;;;6.35;65.90;98867.84;4974059;28;20066;-78
2021/11/07 00:42:24;;;;;;;0.95;0.50;;;;;;;6.14;65.97;98853.53;4976941;28;20058;-80
2021/11/07 00:45:00;;;;;;;1.02;0.43;;;;;;;5.94;66.06;98878.56;4941403;29;20049;-76
2021/11/07 00:50:06;;;;;;;31.17;9.25;;;;;;;5.70;67.81;98877.66;4965751;28;20370;-77
2021/11/07 00:52:38;;;;;;;2.20;0.88;;;;;;;5.72;67.27;98892.34;4946951;28;20133;-77
2021/11/07 01:00:15;;;;;;;1.38;0.30;;;;;;;5.71;67.48;98897.66;4955258;28;20051;-79
2021/11/07 01:02:41;;;;;;;2.78;0.50;;;;;;;5.70;67.95;98902.09;4973789;28;20042;-76
2021/11/07 01:05:19;;;;;;;0.60;0.25;;;;;;;5.70;69.00;98898.66;4940902;28;20047;-75
2021/11/07 01:07:46;;;;;;;1.10;0.55;;;;;;;5.78;68.38;98894.53;4970953;28;20428;-78
2021/11/07 01:10:13;;;;;;;0.82;0.38;;;;;;;5.86;67.97;98909.75;4959073;28;20039;-77
2021/11/07 01:12:39;;;;;;;0.88;0.40;;;;;;;5.87;67.79;98903.56;4951300;28;20057;-76
2021/11/07 01:15:06;;;;;;;1.73;0.25;;;;;;;5.93;67.86;98908.38;4961575;28;20042;-77
2021/11/07 01:17:32;;;;;;;0.43;0.30;;;;;;;6.07;68.26;98919.69;4963618;28;20451;-76
2021/11/07 01:19:58;;;;;;;1.30;0.50;;;;;;;6.11;68.56;98910.66;4963994;28;20074;-77
2021/11/07 01:25:11;;;;;;;0.80;0.20;;;;;;;6.14;67.60;98910.44;4945978;28;20097;-80
2021/11/07 01:27:40;;;;;;;0.63;0.30;;;;;;;6.14;67.76;98924.41;4954195;28;20047;-77
2021/11/07 01:30:12;;;;;;;1.75;0.57;;;;;;;6.09;68.41;98917.81;4953475;28;20388;-75
2021/11/07 01:32:42;;;;;;;0.50;0.32;;;;;;;6.01;68.27;98928.00;4943320;28;20397;-76
2021/11/07 01:35:24;;;;;;;1.45;0.82;;;;;;;5.80;68.95;98933.78;4957131;29;20050;-77
2021/11/07 01:38:11;;;;;;;4.72;0.40;;;;;;;5.78;69.54;98939.16;4957221;29;20055;-75
2021/11/07 01:40:55;;;;;;;1.50;0.25;;;;;;;5.76;69.03;98950.69;4957741;29;20078;-78
2021/11/07 01:43:21;;;;;;;2.65;0.63;;;;;;;5.77;68.72;98939.22;4947559;28;20050;-77
2021/11/07 01:45:57;;;;;;;1.38;0.40;;;;;;;5.83;68.10;98949.31;4976096;28;20057;-77
2021/11/07 01:48:27;;;;;;;0.95;0.50;;;;;;;5.83;68.04;98944.06;4975933;28;20713;-76
2021/11/07 01:50:56;;;;;;;0.63;0.30;;;;;;;5.79;69.28;98960.97;4975691;28;20034;-75
2021/11/07 01:53:33;;;;;;;1.30;0.20;;;;;;;5.65;68.38;98956.66;4976190;28;20039;-75
2021/11/07 01:56:03;;;;;;;0.47;0.43;;;;;;;5.47;69.41;98959.59;4959382;28;20123;-79
2021/11/07 01:58:30;;;;;;;0.93;0.35;;;;;;;5.40;69.60;98979.31;4975963;28;20054;-76
2021/11/07 02:00:56;;;;;;;1.27;0.65;;;;;;;5.49;69.36;98978.69;4969298;28;20460;-76
2021/11/07 02:03:22;;;;;;;11.02;3.50;;;;;;;5.49;69.66;98985.72;4956646;29;20066;-76
2021/11/07 02:05:49;;;;;;;2.42;0.52;;;;;;;5.46;68.60;98988.56;4961210;28;20062;-77
2021/11/07 02:08:17;;;;;;;0.70;0.43;;;;;;;5.44;68.72;98990.44;4957625;28;20050;-77
2021/11/07 02:10:43;;;;;;;1.27;0.55;;;;;;;5.50;69.28;98990.03;4956442;28;20043;-77
2021/11/07 02:13:09;;;;;;;0.45;0.22;;;;;;;5.58;68.88;98994.75;4939392;29;20481;-75
2021/11/07 02:15:35;;;;;;;0.30;0.20;;;;;;;5.65;69.12;99002.09;4956858;28;20039;-78
2021/11/07 02:18:02;;;;;;;1.55;0.30;;;;;;;5.59;69.68;99007.75;4956281;28;20078;-77
2021/11/07 02:20:33;;;;;;;2.13;0.40;;;;;;;5.49;69.41;98999.66;4956615;29;20043;-78
2021/11/07 02:23:03;;;;;;;0.70;0.30;;;;;;;5.43;69.47;99015.81;4939467;29;20049;-75
2021/11/07 02:25:29;;;;;;;1.45;0.20;;;;;;;5.40;70.06;99025.69;4970581;28;20496;-78
2021/11/07 02:27:56;;;;;;;1.05;0.50;;;;;;;5.34;70.15;99027.75;4939288;29;20098;-75
2021/11/07 02:30:22;;;;;;;0.63;0.32;;;;;;;5.38;70.05;99030.16;4956385;28;20050;-77
2021/11/07 02:32:49;;;;;;;1.05;0.40;;;;;;;5.37;70.28;99036.34;4955934;29;20557;-76
2021/11/07 02:35:16;;;;;;;0.68;0.30;;;;;;;5.46;69.84;99038.38;4968760;28;20053;-76
2021/11/07 02:37:43;;;;;;;1.88;0.35;;;;;;;5.55;69.74;99039.56;4941850;28;20503;-75
2021/11/07 02:40:10;;;;;;;3.50;0.68;;;;;;;5.59;69.84;99036.59;4973608;28;20047;-77
2021/11/07 02:42:39;;;;;;;1.40;0.60;;;;;;;5.58;69.24;99055.94;4975029;28;20802;-74
2021/11/07 02:45:05;;;;;;;0.60;0.30;;;;;;;5.61;68.34;99050.47;4966432;28;20289;-76
2021/11/07 02:47:31;;;;;;;0.75;0.35;;;;;;;5.61;68.68;99050.47;4941683;28;20507;-75
2021/11/07 02:49:57;;;;;;;2.00;0.40;;;;;;;5.59;68.15;99062.84;4957039;28;20057;-81
2021/11/07 02:52:23;;;;;;;0.43;0.20;;;;;;;5.55;68.42;99071.84;4959356;28;20130;-78
2021/11/07 02:54:50;;;;;;;1.38;0.47;;;;;;;5.40;68.82;99072.88;4906735;29;20050;-77
2021/11/07 02:57:21;;;;;;;0.70;0.25;;;;;;;5.42;68.08;99070.97;4955883;28;20126;-76
2021/11/07 02:59:56;;;;;;;0.82;0.38;;;;;;;5.39;67.31;99081.69;4956602;28;20043;-80
2021/11/07 03:02:22;;;;;;;2.63;0.28;;;;;;;5.34;67.27;99084.59;4923514;29;20093;-81
2021/11/07 03:04:48;;;;;;;0.35;0.30;;;;;;;5.36;66.94;99087.97;4958469;28;20089;-77
2021/11/07 03:07:14;;;;;;;0.45;0.30;;;;;;;5.26;67.63;99098.22;4957383;28;20051;-80
2021/11/07 03:09:40;;;;;;;0.55;0.30;;;;;;;5.20;66.95;99085.50;4974888;28;20047;-80
2021/11/07 03:12:08;;;;;;;1.00;0.30;;;;;;;5.17;67.42;99106.66;4956822;28;20042;-77
2021/11/07 03:14:45;;;;;;;1.27;0.40;;;;;;;5.10;67.69;99108.00;4973540;28;20527;-74
2021/11/07 03:17:14;;;;;;;0.55;0.30;;;;;;;5.01;67.76;99110.25;4959341;28;20101;-75
2021/11/07 03:19:40;;;;;;;0.63;0.35;;;;;;;5.02;68.14;99108.47;4969744;28;20131;-76
2021/11/07 03:22:09;;;;;;;0.88;0.50;;;;;;;4.96;67.25;99117.56;4954949;28;20044;-76
2021/11/07 03:24:36;;;;;;;0.98;0.40;;;;;;;4.97;67.08;99123.63;4938092;29;20154;-78
2021/11/07 03:27:11;;;;;;;0.88;0.57;;;;;;;5.08;66.33;99123.81;4954819;28;20564;-75
2021/11/07 03:29:38;;;;;;;1.42;0.70;;;;;;;5.03;65.55;99123.25;4955424;28;20098;-79
2021/11/07 03:32:11;;;;;;;1.35;0.60;;;;;;;4.99;66.40;99127.84;4954590;28;20069;-78
2021/11/07 03:35:16;;;;;;;2.13;0.90;;;;;;;5.05;66.37;99138.88;4974394;28;20051;-77
2021/11/07 03:37:35;;;;;;;2.10;0.85;;;;;;;5.07;66.08;99135.25;4973415;28;20050;-80
2021/11/07 03:40:07;;;;;;;2.45;1.10;;;;;;;5.11;66.55;99156.84;4957111;28;20082;-74
2021/11/07 03:42:33;;;;;;;3.20;0.88;;;;;;;5.07;65.95;99152.75;4969606;28;20038;-78
2021/11/07 03:44:59;;;;;;;2.08;0.88;;;;;;;5.00;65.74;99149.66;4954266;28;20043;-76
2021/11/07 03:47:25;;;;;;;2.17;0.98;;;;;;;4.94;66.50;99160.53;4954270;28;20550;-76
2021/11/07 03:49:52;;;;;;;1.65;0.93;;;;;;;4.98;66.62;99162.03;4955802;29;20046;-79
2021/11/07 03:52:18;;;;;;;3.63;1.02;;;;;;;5.08;66.79;99170.97;4937914;29;20138;-75
2021/11/07 03:54:44;;;;;;;20.13;8.73;;;;;;;5.13;66.72;99165.47;4967802;28;20125;-78
2021/11/07 03:57:11;;;;;;;1.90;1.00;;;;;;;5.20;66.72;99177.25;4973660;28;20043;-77
2021/11/07 03:59:39;;;;;;;2.97;1.15;;;;;;;5.28;66.85;99179.38;4957103;28;20059;-75
2021/11/07 04:02:05;;;;;;;4.40;1.02;;;;;;;5.27;66.71;99191.66;4955253;28;20070;-79
2021/11/07 04:04:31;;;;;;;1.88;0.70;;;;;;;5.18;67.73;99186.97;4954101;29;20573;-79
2021/11/07 04:06:56;;;;;;;1.20;0.47;;;;;;;5.15;67.64;99195.06;4954063;29;20078;-79
2021/11/07 04:09:22;;;;;;;1.88;0.82;;;;;;;5.02;67.19;99195.81;4954129;28;20388;-80
2021/11/07 04:11:48;;;;;;;3.22;0.70;;;;;;;5.00;67.94;99195.06;4953743;28;20054;-77
2021/11/07 04:14:15;;;;;;;1.70;0.60;;;;;;;4.93;67.65;99196.34;4954024;28;20043;-78
2021/11/07 04:16:41;;;;;;;1.88;0.75;;;;;;;4.96;67.16;99211.91;4968908;28;20534;-77
2021/11/07 04:19:08;;;;;;;3.33;0.90;;;;;;;4.95;67.06;99212.00;4973103;28;20094;-76
2021/11/07 04:21:34;;;;;;;1.67;0.80;;;;;;;5.00;67.14;99221.25;4974074;28;20065;-75
2021/11/07 04:24:00;;;;;;;2.47;0.70;;;;;;;5.09;66.84;99226.88;4973191;28;20042;-79
2021/11/07 04:26:27;;;;;;;2.40;0.63;;;;;;;5.13;67.24;99225.75;4955610;28;20062;-78
2021/11/07 04:28:52;;;;;;;1.58;0.60;;;;;;;5.20;67.28;99240.16;4973187;28;20038;-77
2021/11/07 04:31:18;;;;;;;1.75;0.73;;;;;;;5.25;66.97;99234.66;4955134;28;20133;-77
2021/11/07 04:33:44;;;;;;;0.95;0.57;;;;;;;5.26;67.33;99238.94;4973456;28;20046;-81
2021/11/07 04:36:10;;;;;;;1.73;0.60;;;;;;;5.23;67.50;99250.44;4951968;28;20046;-80
2021/11/07 04:38:37;;;;;;;2.45;1.05;;;;;;;5.08;67.38;99252.22;4947322;29;20051;-76
2021/11/07 04:41:05;;;;;;;1.77;0.63;;;;;;;5.02;67.79;99247.38;4936068;29;20051;-76
2021/11/07 04:43:31;;;;;;;1.90;1.00;;;;;;;5.06;67.87;99253.25;4936394;29;20082;-78
2021/11/07 04:45:57;;;;;;;1.65;0.50;;;;;;;5.14;67.37;99253.66;4965475;28;20445;-77
2021/11/07 04:48:23;;;;;;;1.17;0.60;;;;;;;5.16;65.82;99264.91;4946285;28;20039;-80
2021/11/07 04:50:50;;;;;;;3.17;0.90;;;;;;;5.25;65.66;99264.31;4964063;28;20504;-77
2021/11/07 04:53:20;;;;;;;2.13;0.50;;;;;;;5.27;66.17;99283.44;4973354;28;20046;-78
2021/11/07 04:55:47;;;;;;;3.42;0.77;;;;;;;5.27;65.85;99280.81;4973131;28;20082;-81
2021/11/07 04:58:13;;;;;;;4.00;2.22;;;;;;;5.34;65.97;99289.94;4941489;29;20047;-80
2021/11/07 05:00:41;;;;;;;1.25;0.95;;;;;;;5.38;66.00;99281.91;4960165;28;20051;-77
2021/11/07 05:03:08;;;;;;;1.70;0.87;;;;;;;5.40;65.61;99293.16;4954126;28;20039;-79
2021/11/07 05:05:35;;;;;;;1.45;0.60;;;;;;;5.50;66.30;99289.84;4936621;29;20125;-79
2021/11/07 05:08:00;;;;;;;2.60;0.73;;;;;;;5.57;65.86;99300.81;4920586;29;20062;-79
2021/11/07 05:10:27;;;;;;;6.13;2.95;;;;;;;5.61;66.41;99285.72;4953563;28;20493;-79
2021/11/07 05:12:53;;;;;;;1.42;0.60;;;;;;;5.64;66.87;99288.97;4961549;28;20110;-78
2021/11/07 05:15:19;;;;;;;2.72;1.00;;;;;;;5.69;66.18;99298.38;4954701;29;20544;-79
2021/11/07 05:17:45;;;;;;;3.75;2.58;;;;;;;5.68;66.39;99302.75;4954448;29;20039;-78
2021/11/07 05:20:12;;;;;;;3.58;1.20;;;;;;;5.62;66.79;99304.00;4961396;28;20073;-78
2021/11/07 05:22:39;;;;;;;2.28;0.82;;;;;;;5.37;66.70;99309.06;4940367;28;20126;-80
2021/11/07 05:25:06;;;;;;;2.75;0.85;;;;;;;5.27;67.18;99314.88;4973533;28;20747;-79
2021/11/07 05:27:33;;;;;;;1.25;0.80;;;;;;;5.32;67.82;99315.44;4971407;28;20582;-77
2021/11/07 05:29:59;;;;;;;1.42;0.60;;;;;;;5.21;68.33;99314.41;4974038;28;20074;-80
2021/11/07 05:32:25;;;;;;;1.73;0.65;;;;;;;5.15;68.97;99315.63;4974083;28;20054;-80
2021/11/07 05:34:51;;;;;;;2.35;0.55;;;;;;;5.25;68.50;99314.13;4960826;28;20050;-78
2021/11/07 05:37:17;;;;;;;1.40;0.50;;;;;;;5.17;68.25;99318.97;4936635;29;20047;-77
2021/11/07 05:39:43;;;;;;;2.28;0.85;;;;;;;5.26;68.90;99322.81;4953942;29;20156;-77
2021/11/07 05:42:10;;;;;;;2.20;1.33;;;;;;;5.27;68.72;99320.13;4952662;28;20079;-80
2021/11/07 05:44:37;;;;;;;3.85;1.35;;;;;;;5.07;69.12;99317.88;4963276;28;20058;-83
2021/11/07 05:47:03;;;;;;;1.38;0.60;;;;;;;4.97;69.37;99334.16;4936150;29;20055;-80
2021/11/07 05:49:29;;;;;;;6.13;0.88;;;;;;;4.87;70.34;99338.22;4954154;29;20580;-79
2021/11/07 05:51:55;;;;;;;2.60;0.75;;;;;;;5.20;69.37;99337.16;4963855;28;20125;-78
2021/11/07 05:54:21;;;;;;;2.55;1.17;;;;;;;5.88;67.59;99333.00;4973977;28;20079;-81
2021/11/07 05:56:47;;;;;;;2.85;1.00;;;;;;;6.83;65.87;99337.44;4946575;28;20048;-80
2021/11/07 05:59:15;;;;;;;1.33;0.60;;;;;;;7.34;62.94;99342.75;4943781;28;20042;-80
2021/11/07 06:01:40;;;;;;;5.43;1.10;;;;;;;8.13;61.02;99339.81;4956079;28;20043;-80
2021/11/07 06:04:07;;;;;;;3.33;1.23;;;;;;;9.09;58.20;99345.97;4972259;28;20050;-81
2021/11/07 06:06:33;;;;;;;4.57;1.20;;;;;;;9.57;56.03;99349.38;4955648;28;20051;-81
2021/11/07 06:09:00;;;;;;;2.33;1.17;;;;;;;9.35;55.48;99349.25;4941038;28;20038;-79
2021/11/07 06:11:26;;;;;;;2.75;0.80;;;;;;;8.68;56.73;99356.03;4953874;28;20618;-80
2021/11/07 06:13:53;;;;;;;2.50;0.80;;;;;;;8.03;58.26;99359.88;4936471;29;20102;-77
2021/11/07 06:16:19;;;;;;;11.48;4.90;;;;;;;7.83;58.46;99358.69;4953614;28;20461;-79
2021/11/07 06:18:45;;;;;;;9.02;3.67;;;;;;;7.52;58.94;99372.19;4954872;28;20055;-81
2021/11/07 06:21:11;;;;;;;9.32;3.47;;;;;;;7.34;58.82;99376.94;4955473;28;20046;-83
2021/11/07 06:23:38;;;;;;;18.33;6.95;;;;;;;7.22;58.83;99375.97;4943283;28;20054;-81
2021/11/07 06:26:04;;;;;;;11.63;3.33;;;;;;;7.25;59.00;99386.31;4958578;28;20050;-82
2021/11/07 06:28:30;;;;;;;6.97;2.88;;;;;;;6.91;58.59;99383.28;4975869;28;20578;-78
2021/11/07 06:30:59;;;;;;;9.25;3.92;;;;;;;6.80;59.42;99391.91;4926447;29;20134;-81
2021/11/07 06:33:25;;;;;;;18.70;7.28;;;;;;;6.73;59.96;99395.03;4945064;28;20404;-83
2021/11/07 06:35:51;;;;;;;11.65;4.18;;;;;;;6.71;59.81;99389.03;4972512;28;20046;-79
2021/11/07 06:38:17;;;;;;;4.85;2.00;;;;;;;6.95;59.23;99386.56;4961633;28;20047;-75
2021/11/07 06:40:43;;;;;;;4.82;1.00;;;;;;;6.79;59.26;99389.34;4941923;28;20089;-81
2021/11/07 06:43:08;;;;;;;3.60;0.90;;;;;;;6.79;59.88;99389.34;4969277;28;20051;-79
2021/11/07 06:45:36;;;;;;;5.45;1.65;;;;;;;6.92;58.88;99384.97;4955130;28;20039;-80
2021/11/07 06:48:03;;;;;;;8.15;1.48;;;;;;;6.97;59.48;99393.41;4956734;28;20603;-77
2021/11/07 06:50:29;;;;;;;6.10;1.30;;;;;;;6.95;58.95;99389.19;4942626;29;20039;-79
2021/11/07 06:52:55;;;;;;;10.50;3.88;;;;;;;7.13;57.67;99392.38;4955596;28;20134;-80
2021/11/07 06:55:21;;;;;;;11.43;4.30;;;;;;;7.39;57.61;99392.38;4960452;28;20216;-81
2021/11/07 06:57:47;;;;;;;12.15;3.50;;;;;;;7.87;56.19;99397.81;4940962;29;20047;-79
2021/11/07 07:00:17;;;;;;;5.97;1.30;;;;;;;8.22;55.04;99391.00;4953358;28;20050;-79
2021/11/07 07:02:43;;;;;;;3.55;1.33;;;;;;;8.14;55.01;99393.34;4957166;28;20043;-78
2021/11/07 07:05:11;;;;;;;4.00;1.02;;;;;;;7.98;54.55;99389.16;4955678;28;20536;-77
2021/11/07 07:07:40;;;;;;;2.90;0.77;;;;;;;8.13;53.15;99404.84;4951376;28;20126;-79
2021/11/07 07:10:10;;;;;;;1.50;0.57;;;;;;;8.20;53.12;99399.03;4951559;28;20051;-78
2021/11/07 07:12:44;;;;;;;9.65;1.95;;;;;;;8.23;53.47;99401.44;4954046;28;20142;-78
2021/11/07 07:15:16;;;;;;;13.60;2.05;;;;;;;8.03;53.33;99396.75;4950753;28;20074;-78
2021/11/07 07:20:41;;;;;;;;;;;;;;;7.72;53.63;99409.44;4951254;28;20580;-80
2021/11/07 07:27:19;;;;;;;6.15;2.25;;;;;;;7.43;55.14;99404.41;4946190;28;20127;-79
2021/11/07 07:34:08;;;;;;;20.98;6.05;;;;;;;7.16;56.17;99426.34;4939328;28;20049;-80
2021/11/07 07:36:35;;;;;;;5.45;2.03;;;;;;;7.34;55.21;99426.06;4955083;28;20043;-79
2021/11/07 07:39:01;;;;;;;5.95;1.60;;;;;;;7.42;55.84;99423.75;4954743;28;20043;-79
2021/11/07 07:41:27;;;;;;;3.97;1.40;;;;;;;7.43;55.31;99422.81;4952120;28;20128;-80
2021/11/07 07:43:54;;;;;;;5.72;1.83;;;;;;;7.21;55.58;99426.88;4959257;28;20208;-81
2021/11/07 07:46:22;;;;;;;2.80;1.10;;;;;;;7.11;56.55;99436.34;4920376;28;20118;-79
2021/11/07 07:48:48;;;;;;;6.00;1.45;;;;;;;7.06;55.95;99430.56;4936760;28;20094;-84
2021/11/07 07:51:17;;;;;;;4.00;0.80;;;;;;;7.10;55.89;99432.88;4941747;29;20044;-79
2021/11/07 07:53:45;;;;;;;13.10;4.70;;;;;;;6.89;55.97;99427.25;4959294;28;20054;-83
2021/11/07 07:56:13;;;;;;;7.93;2.60;;;;;;;7.01;56.37;99424.75;4943825;28;20539;-77
2021/11/07 07:58:39;;;;;;;11.93;3.15;;;;;;;6.96;55.92;99433.78;4968917;28;20046;-78
2021/11/07 08:01:06;;;;;;;4.47;2.00;;;;;;;7.02;56.18;99426.44;4953696;28;20063;-81
2021/11/07 08:03:32;;;;;;;20.60;6.53;;;;;;;7.06;56.38;99423.50;4955622;28;20134;-79
2021/11/07 08:05:58;;;;;;;4.53;1.60;;;;;;;6.99;56.15;99427.50;4963285;28;20074;-81
2021/11/07 08:08:24;;;;;;;7.15;1.83;;;;;;;7.04;55.92;99435.91;4928164;29;20101;-79
2021/11/07 08:10:50;;;;;;;11.73;2.10;;;;;;;7.17;56.80;99438.56;4937994;29;20047;-83
2021/11/07 08:13:21;;;;;;;8.57;2.63;;;;;;;7.40;56.08;99433.53;4910326;29;20077;-89
2021/11/07 08:15:49;;;;;;;5.40;1.90;;;;;;;7.66;54.69;99436.19;4921636;28;20559;-87
2021/11/07 08:18:15;;;;;;;3.65;1.70;;;;;;;8.28;53.69;99438.00;4921797;28;20520;-81
2021/11/07 08:20:44;;;;;;;6.80;1.75;;;;;;;8.40;52.74;99441.56;4928818;29;20040;-79
2021/11/07 08:23:10;;;;;;;9.18;1.77;;;;;;;8.32;52.61;99444.72;4926630;28;20042;-83
2021/11/07 08:25:36;;;;;;;10.52;1.77;;;;;;;8.03;52.85;99459.97;4956247;28;20051;-82
2021/11/07 08:28:05;;;;;;;17.20;1.55;;;;;;;8.26;52.50;99445.16;4928627;28;20500;-82
2021/11/07 08:30:35;;;;;;;8.38;2.58;;;;;;;9.00;51.63;99460.09;4926453;28;20447;-82
2021/11/07 08:33:02;;;;;;;6.63;2.15;;;;;;;9.36;50.30;99451.22;4907163;29;20155;-82
2021/11/07 08:35:28;;;;;;;3.60;1.50;;;;;;;9.34;49.93;99449.66;4909912;29;20631;-81
2021/11/07 08:38:06;;;;;;;4.38;2.13;;;;;;;9.63;49.68;99446.59;4914838;29;20123;-83
2021/11/07 08:40:45;;;;;;;8.00;1.92;;;;;;;9.52;49.82;99450.91;4874548;29;20044;-81
2021/11/07 09:07:23;;;;;;;5.65;1.10;;;;;;;9.74;47.21;99433.38;4895688;29;20084;-83
2021/11/07 09:10:01;;;;;;;6.15;2.35;;;;;;;9.67;47.51;99443.59;4914805;29;20108;-82
2021/11/07 09:12:29;;;;;;;27.92;11.30;;;;;;;9.71;47.86;99436.28;4941479;28;20047;-81
2021/11/07 09:14:56;;;;;;;24.05;8.40;;;;;;;10.27;46.67;99424.00;4918385;29;20050;-79
2021/11/07 09:17:23;;;;;;;13.57;5.00;;;;;;;10.72;45.45;99423.94;4921338;29;20051;-80
2021/11/07 09:19:53;;;;;;;7.25;1.95;;;;;;;10.48;45.82;99427.59;4928061;29;20043;-80
2021/11/07 09:22:35;;;;;;;6.38;2.85;;;;;;;9.68;47.09;99426.81;4912426;29;20043;-77
2021/11/07 09:25:05;;;;;;;9.27;4.00;;;;;;;9.71;47.25;99417.78;4912908;29;20066;-79
2021/11/07 09:30:06;;;;;;;10.68;3.70;;;;;;;10.49;46.58;99413.44;4957925;28;20036;-80
2021/11/07 09:38:05;;;;;;;4.57;1.60;;;;;;;12.99;40.37;99405.38;4944148;28;20050;-82
2021/11/07 09:40:35;;;;;;;7.63;1.50;;;;;;;12.33;40.94;99413.00;4949681;29;20040;-79
2021/11/07 09:48:13;;;;;;;29.58;9.23;;;;;;;12.83;40.54;99404.09;4929774;28;20035;-82
2021/11/07 09:50:45;;;;;;;13.30;3.67;;;;;;;12.89;40.14;99405.38;4915847;29;20055;-80
2021/11/07 09:53:15;;;;;;;21.48;5.30;;;;;;;13.23;39.26;99407.59;4938413;28;20130;-85
2021/11/07 09:55:45;;;;;;;10.13;2.45;;;;;;;12.93;39.55;99418.25;4926605;28;20055;-79
2021/11/07 09:58:13;;;;;;;14.30;3.20;;;;;;;12.23;40.04;99409.50;4959716;29;20062;-81
2021/11/07 10:00:47;;;;;;;105.68;41.90;;;;;;;12.06;40.63;99419.78;4962822;28;20481;-86
2021/11/07 10:03:17;;;;;;;8.38;3.50;;;;;;;11.88;40.80;99410.75;4920520;29;20512;-79
2021/11/07 10:05:47;;;;;;;4.55;1.95;;;;;;;11.00;42.35;99426.94;4932529;29;20050;-81
2021/11/07 10:08:15;;;;;;;10.30;1.73;;;;;;;10.52;43.64;99418.44;4926425;28;20047;-78
2021/11/07 10:11:09;;;;;;;5.75;2.40;;;;;;;10.04;44.73;99430.16;4932392;29;20843;-78
2021/11/07 10:13:33;;;;;;;3.55;1.60;;;;;;;10.08;45.25;99416.69;4956335;29;20125;-81
2021/11/07 10:16:05;;;;;;;19.83;7.43;;;;;;;10.56;44.75;99411.09;4961916;28;20504;-80
2021/11/07 10:21:37;;;;;;;8.95;2.40;;;;;;;11.14;43.27;99413.41;4968255;28;20039;-81
2021/11/07 10:24:16;;;;;;;12.40;4.65;;;;;;;11.32;43.74;99410.16;4941226;28;20047;-81
2021/11/07 10:26:46;;;;;;;30.55;12.27;;;;;;;11.37;42.84;99402.69;4941476;28;20067;-81
2021/11/07 10:29:50;;;;;;;27.90;10.90;;;;;;;11.46;42.27;99416.94;4931812;29;20084;-82
2021/11/07 10:32:31;;;;;;;5.50;1.92;;;;;;;11.41;41.96;99414.66;4933962;29;20043;-84
2021/11/07 10:41:38;;;;;;;9.10;2.38;;;;;;;10.06;44.21;99416.81;4962146;28;20061;-83
2021/11/07 10:47:11;;;;;;;2.58;1.17;;;;;;;9.92;44.22;99403.84;4958302;28;20046;-79
2021/11/07 10:52:33;;;;;;;7.82;1.25;;;;;;;10.34;43.19;99410.19;4955093;28;20108;-80
2021/11/07 10:55:02;;;;;;;5.57;1.25;;;;;;;10.34;43.29;99404.91;4970459;28;20051;-81
2021/11/07 10:57:31;;;;;;;7.55;1.20;;;;;;;10.14;43.95;99411.78;4962226;28;20051;-81
2021/11/07 11:00:10;;;;;;;3.55;1.02;;;;;;;9.50;44.96;99402.66;4930932;28;20465;-84
2021/11/07 11:02:45;;;;;;;16.42;5.35;;;;;;;8.91;46.64;99390.41;4956283;28;20042;-79
2021/11/07 11:05:14;;;;;;;19.50;6.00;;;;;;;8.61;47.46;99390.88;4968165;28;20138;-79
2021/11/07 11:08:00;;;;;;;28.52;9.98;;;;;;;8.50;48.40;99387.25;4958391;28;20090;-80
2021/11/07 11:10:47;;;;;;;19.67;7.18;;;;;;;8.72;47.63;99388.28;4943440;29;20464;-80
2021/11/07 11:13:26;;;;;;;;;;;;;;;8.79;47.09;99389.53;4911108;29;20166;-81
2021/11/07 11:16:46;;;;;;;;;;;;;;;9.02;47.21;99394.88;4957505;28;19922;-82
2021/11/07 11:19:14;;;;;;;6.95;1.55;;;;;;;9.10;46.85;99387.22;4954325;28;19918;-79
2021/11/07 11:30:04;;;;;;;10.73;1.90;;;;;;;8.52;48.51;99369.53;4942292;28;20074;-81
2021/11/07 11:35:21;;;;;;;10.65;2.85;;;;;;;7.88;49.87;99373.19;4940719;28;20047;-85
2021/11/07 11:40:47;;;;;;;24.58;7.45;;;;;;;7.80;50.73;99372.91;4966863;28;20046;-81
2021/11/07 11:43:20;;;;;;;40.70;16.13;;;;;;;7.74;51.24;99378.59;4960092;28;20049;-84
2021/11/07 11:45:54;;;;;;;22.52;8.73;;;;;;;7.88;52.72;99367.91;4927569;29;20515;-74
2021/11/07 11:56:53;;;;;;;20.55;6.93;;;;;;;8.09;51.06;99365.53;4926605;28;20047;-83
2021/11/07 12:02:24;;;;;;;23.60;7.53;;;;;;;8.41;50.50;99358.88;4933440;28;20035;-81
2021/11/07 12:05:13;;;;;;;18.02;5.97;;;;;;;8.48;50.62;99364.59;4912084;29;20090;-87
2021/11/07 12:07:55;;;;;;;12.23;3.13;;;;;;;8.41;50.52;99357.09;4938378;28;20559;-82
2021/11/07 12:10:31;;;;;;;10.27;2.75;;;;;;;8.14;51.19;99352.06;4921719;29;20049;-85
2021/11/07 12:13:07;;;;;;;8.65;2.90;;;;;;;7.98;51.88;99359.38;4948998;28;20484;-84
2021/11/07 12:15:52;;;;;;;12.93;3.28;;;;;;;7.88;52.58;99346.84;4906905;28;20070;-83
2021/11/07 12:18:18;;;;;;;7.25;2.75;;;;;;;7.80;52.89;99350.97;4957693;28;20508;-82
2021/11/07 12:20:44;;;;;;;147.15;40.08;;;;;;;7.75;52.96;99343.41;4962529;28;20092;-87
2021/11/07 12:23:15;;;;;;;9.13;2.53;;;;;;;7.74;52.71;99339.09;4920776;28;20415;-85
2021/11/07 12:25:44;;;;;;;6.32;3.17;;;;;;;7.77;52.45;99338.88;4928162;28;20065;-81
2021/11/07 12:28:12;;;;;;;7.63;2.63;;;;;;;7.80;52.51;99333.41;4944932;28;20468;-86
2021/11/07 12:30:42;;;;;;;4.65;1.90;;;;;;;7.77;52.47;99330.97;4965071;28;20035;-83
2021/11/07 12:33:22;;;;;;;7.85;3.33;;;;;;;7.72;53.08;99333.94;4926023;29;20063;-83
2021/11/07 12:36:26;;;;;;;14.32;3.83;;;;;;;7.71;52.30;99341.94;4953594;28;20072;-84
2021/11/07 12:42:09;;;;;;;5.80;1.73;;;;;;;7.45;52.54;99339.34;4956791;28;20042;-81
2021/11/07 12:44:35;;;;;;;14.73;3.63;;;;;;;7.54;52.55;99330.81;4972603;28;20177;-83
2021/11/07 12:47:07;;;;;;;24.77;7.53;;;;;;;7.54;52.66;99346.59;4927610;28;20509;-84
2021/11/07 12:49:37;;;;;;;16.20;5.82;;;;;;;7.46;53.01;99333.13;4946820;29;20097;-84
2021/11/07 12:52:06;;;;;;;18.53;6.03;;;;;;;7.49;53.13;99335.56;4939690;28;20058;-83
2021/11/07 12:54:37;;;;;;;12.68;3.60;;;;;;;7.51;53.23;99340.72;4909110;29;20047;-86
2021/11/07 12:57:08;;;;;;;11.75;4.00;;;;;;;7.36;53.16;99325.03;4956550;28;20070;-84
2021/11/07 12:59:43;;;;;;;13.68;4.68;;;;;;;7.22;54.09;99328.63;4929079;28;20034;-83
2021/11/07 13:02:17;;;;;;;27.67;9.60;;;;;;;7.11;54.31;99334.63;4928743;28;20389;-85
2021/11/07 13:05:06;;;;;;;11.88;4.93;;;;;;;7.03;54.45;99330.81;4939835;29;20607;-84
2021/11/07 13:08:31;;;;;;;12.23;3.92;;;;;;;6.92;55.06;99337.66;4926826;29;20534;-85
2021/11/07 13:11:13;;;;;;;10.35;3.92;;;;;;;6.87;54.93;99329.25;4945950;28;20027;-77
2021/11/07 13:13:49;;;;;;;13.57;3.50;;;;;;;6.81;55.17;99324.41;4938062;29;20628;-84
2021/11/07 13:27:01;;;;;;;12.05;4.75;;;;;;;6.47;56.40;99329.28;4946948;28;20078;-85
2021/11/07 13:32:30;;;;;;;49.10;14.30;;;;;;;6.37;57.20;99318.53;4906329;29;20561;-84
2021/11/07 13:35:24;;;;;;;8.55;2.90;;;;;;;6.37;57.59;99309.78;4895831;29;20040;-88
2021/11/07 13:38:07;;;;;;;9.68;2.95;;;;;;;6.44;56.92;99313.69;4911906;29;20072;-85
2021/11/07 13:40:57;;;;;;;12.77;3.57;;;;;;;6.53;57.12;99307.00;4893787;29;20201;-84
2021/11/07 13:43:30;;;;;;;8.98;3.40;;;;;;;6.55;57.04;99313.84;4906763;29;20284;-87
2021/11/07 13:46:04;;;;;;;12.32;4.00;;;;;;;6.60;57.23;99310.91;4891582;29;20044;-82
2021/11/07 13:48:33;;;;;;;21.55;8.38;;;;;;;6.56;57.74;99299.75;4886239;29;20045;-86
2021/11/07 13:51:01;;;;;;;8.98;3.65;;;;;;;6.43;57.76;99315.50;4903608;29;20049;-83
2021/11/07 13:53:36;;;;;;;19.98;6.38;;;;;;;6.46;58.66;99303.94;4895126;29;20036;-86
2021/11/07 13:56:09;;;;;;;12.60;5.38;;;;;;;6.38;58.80;99306.22;4912686;29;20462;-83
2021/11/07 13:58:41;;;;;;;9.57;3.60;;;;;;;6.43;59.61;99298.88;4926010;29;20509;-85
2021/11/07 14:01:10;;;;;;;11.65;3.72;;;;;;;6.35;60.01;99290.69;4940018;29;20051;-84
2021/11/07 14:03:43;;;;;;;8.20;3.28;;;;;;;6.35;60.03;99288.88;4923343;29;20058;-80
2021/11/07 14:09:19;;;;;;;10.98;4.20;;;;;;;6.27;61.62;99289.41;4953964;28;20050;-83
2021/11/07 14:11:49;;;;;;;16.67;3.83;;;;;;;6.13;62.13;99284.19;4944406;28;20061;-82